Headrick, Oklahoma
Current Conditions -  °F | °C
As of 9:58 PM on Tuesday 21 Oct 2014 (Local Time) from KLTS Reporting Station
Clear Clear  
Wind Chill: 62°   Ceiling: Unl
Heat Index: 62°   Visibility: 10mi
Dew Point: 53°   Wind: 7mph
Humidity: 72%   Direction: 120°ESE
Pressure: 30.05"   Gusts: NA
Location:  34.63°N, 99.14°W
Report Text: KLTS 220258Z 12006KT 10SM CLR 17/12 A3005 RMK AO2A SLP168 T01670117 52014 $
Loading
Personal Weather Stations






























Interactive Weather Map
Tropical Storm Tracking
New forecast layout! Learn more

10-Day Weather Forecast

Advertisements
Track Severe Weather on mobile